Aktion, Greece

11:47 AM EEST on August 20, 2014 (GMT +0300)
IWESTGRE4 | Change Station
CLOSE
Current Station
Personal Weather Station
Location: NEA KAMARINA (SV1JMO), WEST GREECE
Elevation: 52 ft
Nearby Weather Stations

Elev 52 ft 38.93 °N, 20.85 °E | Updated 8 minutes ago

Partly Cloudy
Partly Cloudy
83.5 °F
Feels Like 85 °F
N
3.0
Wind Variable Wind from NNW
Gusts 8.3 mph

Today
High -- | Low -- °F
--% Chance of Precip.
Yesterday
High -- | Low -- °F
Precip. -- in
6:54 AM 8:25 PM
Waning Crescent, 23% visible
Pressure 30.04 in
Visibility 6.2 miles
Clouds Few 4000 ft
Heat Index 85 °F
Dew Point 63 °F
Humidity 52%
Rainfall 0.01 in
Snow Depth Not available.
UV 7 out of 12
Pollen Not available.
Air Quality Not available.
Flu Activity Not available.
METAR LGPZ 200820Z 00000KT 9999 FEW040 27/16 Q1017 NOSIG

More Conditions Fewer Conditions

Pressure 30.04 in
Visibility 6.2 miles
Clouds Few 4000 ft
Heat Index 85 °F
Dew Point 63 °F
Humidity 52%
Rainfall 0.01 in
Snow Depth Not available.
UV 7 out of 12
Pollen Not available.
Air Quality Not available.
Flu Activity Not available.
METAR LGPZ 200820Z 00000KT 9999 FEW040 27/16 Q1017 NOSIG

More Conditions Fewer Conditions

10-Day Weather Forecast

Almanac

Astronomy

Aug. 20, 2014 Rise Set
Actual Time 6:54 AM EEST 8:25 PM EEST
Civil Twilight 6:26 AM EEST 8:53 PM EEST
Nautical Twilight 5:52 AM EEST 9:27 PM EEST
Astronomical Twilight 5:16 AM EEST 10:02 PM EEST
Moon 2:20 AM EEST 4:55 PM EEST
Length of Visible Light 14h 26m
Length of Day
13h 30m
Tomorrow will be 2m 17s shorter.
Waning Crescent, 23% of the Moon is Illuminated
Today
Waning Crescent
Aug 25
New
Sep 2
First Quarter
Sep 8
Full
Sep 15
Last Quarter

Yesterday's Extremes

Country Highs Country Lows

Community

WunderPhotos

Upload Photos

1,745,600 photos uploaded!

Nearby

Snow Depth

Not available.

Earthquake Activity

City Distance Mag. Time & Date
No recent earthquake activity has been reported nearby.
Minimum magnitude displayed is 2.5.

Coastal Water Temperatures

Place Temperature
No Stations Reporting

Nearby Weather Stations